createdAt,value
2018-08-16T00:01:23.949Z,5.00
2018-08-16T00:03:51.296Z,5.27
2018-08-16T00:06:18.683Z,6.07
2018-08-16T00:08:46.090Z,5.60
2018-08-16T00:11:13.643Z,5.60
2018-08-16T00:13:41.018Z,5.50
2018-08-16T00:16:08.507Z,6.07
2018-08-16T00:18:35.879Z,7.20
2018-08-16T00:21:03.277Z,6.77
2018-08-16T00:23:30.657Z,6.00
2018-08-16T00:25:58.914Z,5.83
2018-08-16T00:28:27.239Z,6.43
2018-08-16T00:30:54.681Z,5.80
2018-08-16T00:33:22.112Z,5.80
2018-08-16T00:35:49.480Z,5.80
2018-08-16T00:38:16.829Z,7.10
2018-08-16T00:40:44.353Z,5.80
2018-08-16T00:43:11.703Z,5.77
2018-08-16T00:45:39.100Z,6.83
2018-08-16T00:48:06.533Z,7.83
2018-08-16T00:50:33.969Z,6.60
2018-08-16T00:53:01.426Z,6.30
2018-08-16T00:55:29.898Z,7.10
2018-08-16T00:57:58.782Z,6.47
2018-08-16T01:00:27.054Z,7.10
2018-08-16T01:02:54.477Z,6.73
2018-08-16T01:05:21.921Z,7.77
2018-08-16T01:07:49.317Z,7.70
2018-08-16T01:10:16.795Z,6.77
2018-08-16T01:12:44.588Z,7.00
2018-08-16T01:15:13.700Z,6.73
2018-08-16T01:17:41.295Z,6.80
2018-08-16T01:20:08.838Z,6.87
2018-08-16T01:22:36.299Z,6.67
2018-08-16T01:25:04.170Z,6.83
2018-08-16T01:27:31.769Z,7.13
2018-08-16T01:30:00.163Z,5.87
2018-08-16T01:32:29.459Z,7.83
2018-08-16T01:34:57.118Z,8.47
2018-08-16T01:37:24.945Z,7.00
2018-08-16T01:39:52.345Z,7.27
2018-08-16T01:42:19.720Z,7.43
2018-08-16T01:44:47.152Z,7.83
2018-08-16T01:47:14.562Z,6.67
2018-08-16T01:49:41.992Z,7.87
2018-08-16T01:52:09.535Z,6.17
2018-08-16T01:54:36.927Z,11.57
2018-08-16T01:57:04.415Z,17.70
2018-08-16T01:59:32.163Z,10.63
2018-08-16T02:02:00.780Z,6.70
2018-08-16T02:04:28.438Z,6.90
2018-08-16T02:06:55.891Z,6.90
2018-08-16T02:09:24.496Z,7.03
2018-08-16T02:11:52.261Z,7.00
2018-08-16T02:14:19.964Z,8.00
2018-08-16T02:16:47.455Z,7.27
2018-08-16T02:19:15.075Z,6.23
2018-08-16T02:21:42.778Z,10.03
2018-08-16T02:24:10.783Z,14.77
2018-08-16T02:26:39.163Z,7.83
2018-08-16T02:29:06.828Z,7.27
2018-08-16T02:31:34.380Z,7.40
2018-08-16T02:34:01.837Z,7.20
2018-08-16T02:36:29.341Z,8.53
2018-08-16T02:38:56.797Z,6.37
2018-08-16T02:41:24.150Z,6.93
2018-08-16T02:43:51.495Z,7.80
2018-08-16T02:46:18.914Z,7.10
2018-08-16T02:48:46.269Z,15.67
2018-08-16T02:51:13.787Z,21.03
2018-08-16T02:53:41.449Z,11.20
2018-08-16T02:56:09.763Z,8.00
2018-08-16T02:58:37.433Z,8.73
2018-08-16T03:01:04.935Z,8.50
2018-08-16T03:03:32.577Z,9.60
2018-08-16T03:05:59.972Z,9.50
2018-08-16T03:08:27.362Z,9.03
2018-08-16T03:10:54.748Z,8.33
2018-08-16T03:13:22.220Z,8.00
2018-08-16T03:15:49.676Z,9.10
2018-08-16T03:18:17.028Z,8.03
2018-08-16T03:20:44.456Z,7.83
2018-08-16T03:23:12.181Z,6.60
2018-08-16T03:25:40.722Z,6.50
2018-08-16T03:28:08.560Z,7.20
2018-08-16T03:30:36.038Z,7.57
2018-08-16T03:33:03.498Z,7.30
2018-08-16T03:35:30.902Z,7.70
2018-08-16T03:37:58.399Z,7.50
2018-08-16T03:40:25.839Z,7.57
2018-08-16T03:42:53.223Z,8.70
2018-08-16T03:45:20.578Z,7.90
2018-08-16T03:47:47.995Z,8.27
2018-08-16T03:50:15.330Z,8.13
2018-08-16T03:52:42.881Z,8.20
2018-08-16T03:55:11.344Z,9.13
2018-08-16T03:57:39.276Z,9.10
2018-08-16T04:00:07.074Z,8.07
2018-08-16T04:02:34.664Z,7.13
2018-08-16T04:05:02.086Z,7.20
2018-08-16T04:07:29.671Z,8.77
2018-08-16T04:09:57.015Z,9.50
2018-08-16T04:12:24.446Z,7.63
2018-08-16T04:14:51.833Z,7.93
2018-08-16T04:17:19.383Z,7.13
2018-08-16T04:19:46.744Z,6.17
2018-08-16T04:22:14.110Z,6.90
2018-08-16T04:24:42.590Z,8.27
2018-08-16T04:27:10.635Z,7.60
2018-08-16T04:29:38.089Z,8.50
2018-08-16T04:32:05.530Z,8.30
2018-08-16T04:34:32.875Z,8.17
2018-08-16T04:37:00.242Z,8.60
2018-08-16T04:39:27.614Z,6.93
2018-08-16T04:41:55.053Z,7.00
2018-08-16T04:44:22.511Z,8.23
2018-08-16T04:46:49.882Z,7.53
2018-08-16T04:49:17.311Z,8.00
2018-08-16T04:51:45.742Z,8.00
2018-08-16T04:54:14.529Z,7.30
2018-08-16T04:56:44.225Z,7.50
2018-08-16T04:59:12.628Z,7.00
2018-08-16T05:01:45.377Z,7.20
2018-08-16T05:04:13.473Z,7.20
2018-08-16T05:06:41.644Z,7.30
2018-08-16T05:09:10.337Z,7.20
2018-08-16T05:11:38.277Z,8.33
2018-08-16T05:14:05.867Z,6.80
2018-08-16T05:16:33.207Z,7.83
2018-08-16T05:19:00.574Z,7.80
2018-08-16T05:21:27.891Z,8.70
2018-08-16T05:23:55.323Z,12.97
2018-08-16T05:26:22.651Z,11.47
2018-08-16T05:28:50.028Z,9.10
2018-08-16T05:31:17.378Z,11.73
2018-08-16T05:33:44.999Z,9.80
2018-08-16T05:36:13.326Z,9.80
2018-08-16T05:38:41.183Z,8.83
2018-08-16T05:41:08.567Z,8.23
2018-08-16T05:43:36.012Z,12.80
2018-08-16T05:46:03.397Z,15.20
2018-08-16T05:48:30.766Z,11.53
2018-08-16T05:50:58.150Z,8.60
2018-08-16T05:53:25.577Z,9.27
2018-08-16T05:55:52.950Z,9.43
2018-08-16T05:58:20.283Z,8.10
2018-08-16T06:00:47.658Z,9.20
2018-08-16T06:03:15.356Z,7.97
2018-08-16T06:05:43.839Z,6.70
2018-08-16T06:08:11.788Z,7.33
2018-08-16T06:10:39.259Z,6.93
2018-08-16T06:13:06.829Z,8.40
2018-08-16T06:15:34.326Z,8.70
2018-08-16T06:18:01.603Z,8.40
2018-08-16T06:20:28.993Z,7.10
2018-08-16T06:22:56.321Z,7.93
2018-08-16T06:25:23.693Z,6.80
2018-08-16T06:27:51.010Z,8.10
2018-08-16T06:30:18.788Z,13.53
2018-08-16T06:32:46.428Z,10.60
2018-08-16T06:35:14.663Z,7.70
2018-08-16T06:37:42.699Z,7.30
2018-08-16T06:40:12.416Z,6.90
2018-08-16T06:42:39.910Z,8.70
2018-08-16T06:45:08.399Z,7.97
2018-08-16T06:47:35.762Z,7.37
2018-08-16T06:50:03.927Z,7.37
2018-08-16T06:52:31.284Z,6.83
2018-08-16T06:54:58.663Z,6.97
2018-08-16T06:57:25.990Z,6.90
2018-08-16T06:59:53.370Z,6.10
2018-08-16T07:02:20.695Z,5.67
2018-08-16T07:04:48.084Z,6.23
2018-08-16T07:07:16.061Z,6.27
2018-08-16T07:09:44.579Z,7.10
2018-08-16T07:12:12.539Z,5.67
2018-08-16T07:14:39.935Z,5.00
2018-08-16T07:17:07.322Z,6.20
2018-08-16T07:19:34.647Z,5.50
2018-08-16T07:22:02.274Z,5.20
2018-08-16T07:24:29.671Z,5.90
2018-08-16T07:26:57.004Z,4.97
2018-08-16T07:29:24.337Z,6.37
2018-08-16T07:31:51.691Z,6.40
2018-08-16T07:34:19.013Z,5.37
2018-08-16T07:36:46.613Z,6.07
2018-08-16T07:39:14.974Z,5.97
2018-08-16T07:41:42.649Z,5.87
2018-08-16T07:44:10.090Z,4.70
2018-08-16T07:46:37.518Z,5.30
2018-08-16T07:49:04.873Z,4.43
2018-08-16T07:51:32.409Z,5.90
2018-08-16T07:53:59.645Z,5.97
2018-08-16T07:56:27.003Z,5.00
2018-08-16T08:01:49.984Z,4.87
2018-08-16T08:04:17.476Z,4.47
2018-08-16T08:06:45.877Z,5.50
2018-08-16T08:09:13.889Z,4.30
2018-08-16T08:11:41.329Z,5.10
2018-08-16T08:14:08.747Z,5.30
2018-08-16T08:16:36.305Z,4.90
2018-08-16T08:19:03.678Z,5.27
2018-08-16T08:21:31.018Z,6.30
2018-08-16T08:23:58.368Z,4.00
2018-08-16T08:26:25.781Z,4.60
2018-08-16T08:28:53.134Z,4.20
2018-08-16T08:31:20.592Z,4.70
2018-08-16T08:33:48.398Z,4.37
2018-08-16T08:36:21.263Z,3.97
2018-08-16T08:38:48.706Z,3.57
2018-08-16T08:41:17.140Z,4.03
2018-08-16T08:43:49.976Z,3.80
2018-08-16T08:46:17.844Z,4.13
2018-08-16T08:48:46.246Z,3.17
2018-08-16T08:51:13.964Z,3.50
2018-08-16T08:54:50.837Z,4.03
2018-08-16T08:57:23.968Z,4.10
2018-08-16T08:59:51.319Z,4.57
2018-08-16T09:02:18.850Z,3.63
2018-08-16T09:04:47.065Z,4.00
2018-08-16T09:07:15.487Z,3.40
2018-08-16T09:11:51.462Z,4.27
2018-08-16T09:14:24.333Z,3.47
2018-08-16T09:16:51.694Z,3.07
2018-08-16T09:19:19.037Z,3.60
2018-08-16T09:21:46.388Z,3.60
2018-08-16T09:24:13.744Z,3.63
2018-08-16T09:26:42.534Z,4.57
2018-08-16T09:31:21.056Z,3.50
2018-08-16T09:33:53.759Z,3.20
2018-08-16T09:36:21.086Z,3.10
2018-08-16T09:38:48.471Z,3.37
2018-08-16T09:41:15.789Z,4.00
2018-08-16T09:43:43.147Z,3.57
2018-08-16T09:46:44.812Z,3.00
2018-08-16T09:49:12.843Z,4.10
2018-08-16T09:51:41.446Z,3.20
2018-08-16T09:54:09.905Z,3.00
2018-08-16T09:56:37.364Z,3.50
2018-08-16T09:59:05.287Z,2.80
2018-08-16T10:04:23.590Z,3.20
2018-08-16T10:06:50.993Z,4.43
2018-08-16T10:09:19.570Z,3.27
2018-08-16T10:11:47.343Z,2.60
2018-08-16T10:14:14.921Z,2.63
2018-08-16T10:16:42.587Z,2.70
2018-08-16T10:19:11.003Z,2.90
2018-08-16T10:21:38.974Z,2.63
2018-08-16T10:24:06.438Z,2.60
2018-08-16T10:26:33.838Z,2.90
2018-08-16T10:29:01.225Z,2.63
2018-08-16T10:31:28.630Z,2.97
2018-08-16T10:33:56.306Z,3.20
2018-08-16T10:36:23.617Z,3.10
2018-08-16T10:38:50.968Z,2.67
2018-08-16T10:41:18.332Z,2.53
2018-08-16T10:43:45.689Z,2.67
2018-08-16T10:46:13.206Z,3.03
2018-08-16T10:48:41.560Z,3.20
2018-08-16T10:51:09.588Z,2.30
2018-08-16T10:53:37.026Z,3.10
2018-08-16T10:56:04.411Z,3.40
2018-08-16T10:58:31.811Z,3.27
2018-08-16T11:00:59.349Z,2.40
2018-08-16T11:03:26.692Z,2.70
2018-08-16T11:05:54.891Z,2.90
2018-08-16T11:08:22.263Z,3.00
2018-08-16T11:10:49.623Z,3.10
2018-08-16T11:13:17.000Z,2.83
2018-08-16T11:15:44.401Z,2.97
2018-08-16T11:18:12.614Z,2.47
2018-08-16T11:20:41.134Z,2.93
2018-08-16T11:23:08.590Z,2.97
2018-08-16T11:25:35.986Z,2.87
2018-08-16T11:28:03.365Z,7.20
2018-08-16T11:30:30.886Z,3.27
2018-08-16T11:32:58.219Z,3.37
2018-08-16T11:35:25.567Z,2.87
2018-08-16T11:37:53.136Z,3.13
2018-08-16T11:40:20.417Z,2.90
2018-08-16T11:42:47.760Z,3.90
2018-08-16T11:45:15.183Z,3.00
2018-08-16T11:47:43.236Z,2.57
2018-08-16T11:50:11.539Z,2.20
2018-08-16T11:52:39.004Z,2.23
2018-08-16T11:55:06.469Z,2.30
2018-08-16T11:57:33.823Z,3.03
2018-08-16T12:00:01.174Z,2.70
2018-08-16T12:02:28.552Z,2.63
2018-08-16T12:04:55.886Z,3.20
2018-08-16T12:07:23.219Z,3.23
2018-08-16T12:09:50.589Z,2.30
2018-08-16T12:12:18.025Z,2.73
2018-08-16T12:14:45.423Z,2.33
2018-08-16T12:17:13.718Z,2.20
2018-08-16T12:19:41.810Z,2.37
2018-08-16T12:22:09.151Z,3.17
2018-08-16T12:24:36.584Z,2.00
2018-08-16T12:27:04.793Z,2.67
2018-08-16T12:29:32.108Z,2.40
2018-08-16T12:31:59.483Z,2.43
2018-08-16T12:34:26.862Z,2.23
2018-08-16T12:36:54.218Z,2.67
2018-08-16T12:39:21.554Z,3.27
2018-08-16T12:41:48.931Z,3.13
2018-08-16T12:44:16.348Z,2.63
2018-08-16T12:46:44.425Z,2.47
2018-08-16T12:49:12.669Z,2.33
2018-08-16T12:51:40.134Z,2.30
2018-08-16T12:54:08.066Z,2.80
2018-08-16T12:56:35.448Z,3.17
2018-08-16T12:59:02.771Z,2.73
2018-08-16T13:01:30.138Z,2.37
2018-08-16T13:03:57.756Z,2.47
2018-08-16T13:06:25.101Z,2.50
2018-08-16T13:08:52.485Z,2.60
2018-08-16T13:11:19.951Z,1.80
2018-08-16T13:13:47.300Z,1.80
2018-08-16T13:16:15.225Z,2.40
2018-08-16T13:18:43.666Z,2.60
2018-08-16T13:21:11.262Z,2.00
2018-08-16T13:23:38.730Z,2.07
2018-08-16T13:26:06.064Z,2.00
2018-08-16T13:28:33.395Z,2.17
2018-08-16T13:31:00.764Z,1.90
2018-08-16T13:33:28.390Z,4.63
2018-08-16T13:35:55.742Z,2.80
2018-08-16T13:38:23.083Z,1.93
2018-08-16T13:40:50.480Z,2.23
2018-08-16T13:43:17.799Z,2.50
2018-08-16T13:45:45.628Z,2.40
2018-08-16T13:48:14.073Z,2.60
2018-08-16T13:50:41.573Z,1.80
2018-08-16T13:53:09.029Z,2.50
2018-08-16T13:55:36.378Z,2.27
2018-08-16T13:58:03.788Z,4.00
2018-08-16T14:00:31.116Z,2.53
2018-08-16T14:02:59.638Z,1.70
2018-08-16T14:05:27.616Z,3.10
2018-08-16T14:07:56.073Z,5.50
2018-08-16T14:10:24.334Z,3.77
2018-08-16T14:12:52.053Z,3.47
2018-08-16T14:15:20.467Z,1.90
2018-08-16T14:17:48.753Z,2.10
2018-08-16T14:20:16.444Z,2.30
2018-08-16T14:22:44.869Z,3.30
2018-08-16T14:25:12.530Z,2.80
2018-08-16T14:27:39.943Z,2.30
2018-08-16T14:30:07.615Z,2.90
2018-08-16T14:32:35.072Z,2.67
2018-08-16T14:35:02.313Z,1.97
2018-08-16T14:37:29.675Z,2.00
2018-08-16T14:39:57.033Z,2.00
2018-08-16T14:42:24.455Z,1.53
2018-08-16T14:44:51.844Z,1.97
2018-08-16T14:47:19.189Z,2.00
2018-08-16T14:49:46.835Z,2.10
2018-08-16T14:52:15.229Z,2.10
2018-08-16T14:54:42.843Z,3.63
2018-08-16T14:57:10.291Z,2.47
2018-08-16T14:59:37.651Z,3.17
2018-08-16T15:02:05.037Z,2.10
2018-08-16T15:04:32.366Z,2.00
2018-08-16T15:06:59.718Z,2.00
2018-08-16T15:09:27.042Z,1.67
2018-08-16T15:11:54.372Z,2.07
2018-08-16T15:14:21.754Z,2.27
2018-08-16T15:16:49.072Z,2.33
2018-08-16T15:19:17.042Z,1.73
2018-08-16T15:21:45.281Z,1.80
2018-08-16T15:24:16.356Z,1.60
2018-08-16T15:26:44.186Z,5.47
2018-08-16T15:29:11.616Z,2.97
2018-08-16T15:31:38.926Z,2.70
2018-08-16T15:34:06.723Z,2.50
2018-08-16T15:36:34.055Z,2.83
2018-08-16T15:39:01.607Z,2.20
2018-08-16T15:41:29.165Z,1.90
2018-08-16T15:43:56.558Z,2.67
2018-08-16T15:46:23.886Z,2.30
2018-08-16T15:48:51.298Z,2.70
2018-08-16T15:51:18.847Z,2.50
2018-08-16T15:53:47.703Z,2.50
2018-08-16T15:56:17.485Z,3.93
2018-08-16T15:58:45.435Z,1.80
2018-08-16T16:01:12.888Z,2.43
2018-08-16T16:03:40.392Z,2.10
2018-08-16T16:06:08.038Z,2.10
2018-08-16T16:08:35.566Z,1.70
2018-08-16T16:11:02.930Z,2.07
2018-08-16T16:13:30.350Z,2.07
2018-08-16T16:15:57.776Z,2.37
2018-08-16T16:18:25.164Z,1.77
2018-08-16T16:20:52.980Z,2.03
2018-08-16T16:23:21.086Z,1.90
2018-08-16T16:25:51.064Z,1.67
2018-08-16T16:28:21.298Z,1.97
2018-08-16T16:30:51.767Z,1.40
2018-08-16T16:33:20.383Z,1.70
2018-08-16T16:35:49.048Z,2.20
2018-08-16T16:38:19.306Z,1.87
2018-08-16T16:40:51.405Z,2.37
2018-08-16T16:43:19.428Z,2.50
2018-08-16T16:45:47.681Z,2.23
2018-08-16T16:48:19.682Z,13.10
2018-08-16T16:50:49.500Z,3.87
2018-08-16T16:53:21.732Z,3.70
2018-08-16T16:55:51.662Z,2.20
2018-08-16T16:58:22.024Z,2.23
2018-08-16T17:00:52.090Z,1.90
2018-08-16T17:03:22.750Z,1.50
2018-08-16T17:05:52.701Z,1.93
2018-08-16T17:08:22.547Z,1.90
2018-08-16T17:10:52.743Z,1.63
2018-08-16T17:13:22.961Z,1.63
2018-08-16T17:15:52.280Z,2.20
2018-08-16T17:18:21.257Z,1.97
2018-08-16T17:20:49.693Z,1.70
2018-08-16T17:23:18.079Z,2.43
2018-08-16T17:25:45.527Z,2.43
2018-08-16T17:28:12.846Z,1.60
2018-08-16T17:30:40.369Z,1.73
2018-08-16T17:33:09.568Z,2.40
2018-08-16T17:35:38.274Z,1.70
2018-08-16T17:38:05.907Z,1.93
2018-08-16T17:40:34.224Z,2.43
2018-08-16T17:43:01.991Z,3.80
2018-08-16T17:45:29.821Z,2.73
2018-08-16T17:47:58.194Z,2.93
2018-08-16T17:50:26.002Z,6.60
2018-08-16T17:52:54.143Z,2.93
2018-08-16T17:55:21.990Z,3.00
2018-08-16T17:57:50.492Z,3.57
2018-08-16T18:00:18.137Z,3.07
2018-08-16T18:02:45.522Z,3.70
2018-08-16T18:05:12.965Z,3.07
2018-08-16T18:07:40.305Z,2.67
2018-08-16T18:10:08.608Z,3.27
2018-08-16T18:12:35.929Z,3.40
2018-08-16T18:15:03.899Z,3.20
2018-08-16T18:17:31.208Z,2.50
2018-08-16T18:19:58.547Z,3.43
2018-08-16T18:22:25.859Z,2.50
2018-08-16T18:24:53.400Z,2.30
2018-08-16T18:27:21.734Z,3.30
2018-08-16T18:29:50.083Z,3.53
2018-08-16T18:32:17.454Z,2.37
2018-08-16T18:34:44.775Z,3.10
2018-08-16T18:37:12.220Z,3.70
2018-08-16T18:39:39.554Z,2.80
2018-08-16T18:42:06.967Z,3.10
2018-08-16T18:44:34.283Z,3.50
2018-08-16T18:47:01.655Z,3.63
2018-08-16T18:49:28.991Z,2.90
2018-08-16T18:51:56.482Z,3.63
2018-08-16T18:54:23.968Z,3.23
2018-08-16T18:56:52.470Z,3.70
2018-08-16T18:59:20.202Z,2.70
2018-08-16T19:01:47.602Z,7.50
2018-08-16T19:04:14.926Z,25.30
2018-08-16T19:06:42.276Z,4.73
2018-08-16T19:09:09.661Z,3.70
2018-08-16T19:11:37.000Z,3.27
2018-08-16T19:14:04.578Z,3.77
2018-08-16T19:16:31.939Z,3.80
2018-08-16T19:18:59.273Z,3.47
2018-08-16T19:21:26.651Z,4.07
2018-08-16T19:23:54.402Z,3.40
2018-08-16T19:26:22.785Z,3.10
2018-08-16T19:28:50.097Z,2.83
2018-08-16T19:31:17.502Z,3.53
2018-08-16T19:33:44.815Z,3.03
2018-08-16T19:36:12.305Z,3.03
2018-08-16T19:38:39.672Z,3.03
2018-08-16T19:41:07.024Z,3.80
2018-08-16T19:43:34.342Z,3.40
2018-08-16T19:46:01.722Z,6.60
2018-08-16T19:48:29.083Z,3.73
2018-08-16T19:50:56.450Z,3.53
2018-08-16T19:53:24.797Z,3.63
2018-08-16T19:55:53.142Z,3.60
2018-08-16T19:58:20.606Z,3.63
2018-08-16T20:00:48.085Z,4.10
2018-08-16T20:03:15.553Z,4.90
2018-08-16T20:05:42.880Z,3.70
2018-08-16T20:08:10.218Z,3.30
2018-08-16T20:10:37.538Z,4.80
2018-08-16T20:13:05.205Z,3.97
2018-08-16T20:15:32.522Z,3.70
2018-08-16T20:17:59.913Z,3.77
2018-08-16T20:20:27.235Z,4.47
2018-08-16T20:22:55.710Z,3.33
2018-08-16T20:25:23.859Z,3.80
2018-08-16T20:27:51.959Z,4.10
2018-08-16T20:30:19.415Z,4.17
2018-08-16T20:32:46.733Z,3.87
2018-08-16T20:35:14.091Z,3.60
2018-08-16T20:37:41.609Z,4.17
2018-08-16T20:40:09.022Z,3.97
2018-08-16T20:42:36.538Z,4.17
2018-08-16T20:45:04.065Z,3.90
2018-08-16T20:47:31.442Z,6.07
2018-08-16T20:49:58.799Z,6.70
2018-08-16T20:52:26.646Z,6.57
2018-08-16T20:54:54.897Z,5.83
2018-08-16T20:57:22.301Z,6.43
2018-08-16T20:59:49.641Z,5.80
2018-08-16T21:02:17.004Z,6.40
2018-08-16T21:04:44.347Z,6.67
2018-08-16T21:07:11.880Z,7.20
2018-08-16T21:09:39.304Z,6.97
2018-08-16T21:12:06.731Z,6.40
2018-08-16T21:14:34.065Z,5.70
2018-08-16T21:17:01.405Z,5.90
2018-08-16T21:19:29.154Z,6.17
2018-08-16T21:21:57.350Z,6.47
2018-08-16T21:24:25.612Z,5.10
2018-08-16T21:26:52.994Z,6.60
2018-08-16T21:29:20.399Z,6.57
2018-08-16T21:31:47.968Z,6.90
2018-08-16T21:34:15.317Z,6.10
2018-08-16T21:36:42.718Z,6.20
2018-08-16T21:39:11.236Z,6.40
2018-08-16T21:41:38.625Z,7.20
2018-08-16T21:44:06.065Z,4.87
2018-08-16T21:46:33.404Z,5.10
2018-08-16T21:49:00.826Z,6.90
2018-08-16T21:51:28.646Z,5.93
2018-08-16T21:53:57.274Z,5.40
2018-08-16T21:56:24.912Z,5.33
2018-08-16T21:58:52.499Z,5.50
2018-08-16T22:01:19.830Z,5.83
2018-08-16T22:03:47.177Z,5.03
2018-08-16T22:06:19.970Z,5.40
2018-08-16T22:08:51.166Z,5.40
2018-08-16T22:11:18.711Z,5.77
2018-08-16T22:13:46.084Z,5.33
2018-08-16T22:16:13.473Z,5.03
2018-08-16T22:18:40.886Z,5.30
2018-08-16T22:21:08.507Z,5.20
2018-08-16T22:23:35.923Z,5.13
2018-08-16T22:26:03.396Z,5.50
2018-08-16T22:28:30.894Z,5.27
2018-08-16T22:30:59.584Z,4.87
2018-08-16T22:33:27.731Z,5.07
2018-08-16T22:35:55.191Z,5.50
2018-08-16T22:38:22.520Z,5.53
2018-08-16T22:40:50.037Z,5.43
2018-08-16T22:43:17.392Z,5.90
2018-08-16T22:45:45.043Z,5.43
2018-08-16T22:48:12.378Z,4.87
2018-08-16T22:50:39.800Z,4.90
2018-08-16T22:53:07.154Z,5.70
2018-08-16T22:55:34.690Z,4.97
2018-08-16T22:58:02.022Z,5.90
2018-08-16T23:00:30.535Z,5.77
2018-08-16T23:02:59.917Z,4.77
2018-08-16T23:05:27.858Z,5.40
2018-08-16T23:07:55.758Z,5.60
2018-08-16T23:10:23.173Z,5.20
2018-08-16T23:12:50.516Z,5.27
2018-08-16T23:15:17.877Z,5.03
2018-08-16T23:17:45.187Z,4.20
2018-08-16T23:20:12.566Z,5.43
2018-08-16T23:22:40.420Z,4.30
2018-08-16T23:25:08.087Z,4.67
2018-08-16T23:27:35.694Z,5.10
2018-08-16T23:30:04.394Z,4.28
2018-08-16T23:32:32.806Z,4.73
2018-08-16T23:35:01.067Z,3.93
2018-08-16T23:37:29.229Z,4.17
2018-08-16T23:39:56.640Z,3.50
2018-08-16T23:42:23.990Z,3.60
2018-08-16T23:44:51.394Z,3.90
2018-08-16T23:47:20.864Z,3.40
2018-08-16T23:49:48.331Z,3.60
2018-08-16T23:52:15.757Z,3.87
2018-08-16T23:54:43.138Z,3.60
2018-08-16T23:57:10.498Z,4.60
2018-08-16T23:59:37.918Z,3.97
